Time;durP1;ratioP1;P1;durP2;ratioP2;P2;SDS_P1;SDS_P2;PMS_P1;PMS_P2;Temp;Humidity;BMP_temperature;BMP_pressure;BME280_temperature;BME280_humidity;BME280_pressure;Samples;Min_cycle;Max_cycle;Signal;HPM_P1;HPM_P2
2021/08/12 00:05:35;;;;;;;8.75;5.15;;;17.70;99.90;;;;;;6719186;88;20190;-75
2021/08/12 00:15:36;;;;;;;8.95;5.57;;;17.50;99.90;;;;;;6717713;88;20325;-75
2021/08/12 00:25:36;;;;;;;9.50;4.82;;;17.40;99.90;;;;;;6716850;88;20221;-75
2021/08/12 00:35:37;;;;;;;9.75;5.12;;;17.30;99.90;;;;;;6717230;88;20923;-74
2021/08/12 00:45:37;;;;;;;8.95;5.78;;;17.00;99.90;;;;;;6715525;88;20263;-75
2021/08/12 00:55:43;;;;;;;9.32;5.80;;;17.00;99.90;;;;;;6720299;88;20692;-75
2021/08/12 01:05:43;;;;;;;9.32;5.60;;;16.80;99.90;;;;;;6716444;88;20206;-75
2021/08/12 01:15:55;;;;;;;10.98;6.47;;;16.70;99.90;;;;;;6715832;88;20270;-74
2021/08/12 01:26:00;;;;;;;11.70;6.28;;;16.60;99.90;;;;;;6716068;88;20237;-74
2021/08/12 01:36:03;;;;;;;9.80;5.93;;;16.70;99.90;;;;;;6716432;88;20239;-75
2021/08/12 01:46:05;;;;;;;11.60;6.10;;;16.80;99.90;;;;;;6722377;88;20273;-75
2021/08/12 01:56:07;;;;;;;12.88;6.97;;;16.60;99.90;;;;;;6722909;88;20210;-72
2021/08/12 02:06:08;;;;;;;11.90;6.70;;;16.50;99.90;;;;;;6729340;88;20180;-74
2021/08/12 02:16:10;;;;;;;8.70;6.20;;;16.30;99.90;;;;;;6728451;88;20184;-73
2021/08/12 02:26:16;;;;;;;9.13;5.70;;;16.40;99.90;;;;;;6738958;88;20652;-74
2021/08/12 02:36:18;;;;;;;11.27;6.25;;;16.20;99.90;;;;;;6732892;88;20201;-75
2021/08/12 02:46:22;;;;;;;11.07;6.05;;;16.20;99.90;;;;;;6732641;88;20703;-73
2021/08/12 02:56:24;;;;;;;12.85;6.22;;;16.20;99.90;;;;;;6731663;88;20209;-75
2021/08/12 03:06:25;;;;;;;9.68;5.65;;;16.10;99.90;;;;;;6723544;88;20244;-75
2021/08/12 03:16:26;;;;;;;9.05;6.03;;;16.10;99.90;;;;;;6732628;88;20240;-74
2021/08/12 03:26:31;;;;;;;8.93;5.72;;;16.00;99.90;;;;;;6732346;88;20187;-75
2021/08/12 03:36:31;;;;;;;8.87;5.87;;;16.00;99.90;;;;;;6731295;88;20304;-74
2021/08/12 03:46:32;;;;;;;9.90;5.57;;;16.00;99.90;;;;;;6731305;88;20184;-75
2021/08/12 03:56:33;;;;;;;8.85;5.87;;;16.00;99.90;;;;;;6731638;88;20285;-75
2021/08/12 04:06:33;;;;;;;12.10;5.40;;;16.00;99.90;;;;;;6731541;88;20227;-75
2021/08/12 04:16:35;;;;;;;9.90;6.15;;;16.10;99.90;;;;;;6730427;88;20763;-74
2021/08/12 04:26:35;;;;;;;8.35;5.12;;;16.10;99.90;;;;;;6724223;88;20315;-74
2021/08/12 04:36:36;;;;;;;8.93;5.35;;;16.00;99.90;;;;;;6727845;88;20347;-74
2021/08/12 04:46:36;;;;;;;12.52;6.03;;;16.10;99.90;;;;;;6729738;88;20254;-74
2021/08/12 04:56:37;;;;;;;8.98;5.70;;;16.20;99.90;;;;;;6728812;88;20458;-74
2021/08/12 05:06:37;;;;;;;10.43;5.32;;;16.20;99.90;;;;;;6728258;88;20616;-74
2021/08/12 05:16:44;;;;;;;10.38;6.65;;;16.30;99.90;;;;;;6729872;88;20339;-74
2021/08/12 05:26:45;;;;;;;9.68;5.60;;;16.20;99.90;;;;;;6729150;88;20688;-74
2021/08/12 05:36:46;;;;;;;11.68;5.75;;;16.30;99.90;;;;;;6730891;88;20210;-74
2021/08/12 05:46:52;;;;;;;8.80;6.00;;;16.70;99.90;;;;;;6732315;88;20224;-74
2021/08/12 05:57:01;;;;;;;12.05;5.75;;;16.70;99.90;;;;;;6731682;88;20558;-75
2021/08/12 06:07:12;;;;;;;7.93;5.50;;;17.10;99.90;;;;;;6731944;88;20721;-73
2021/08/12 06:17:16;;;;;;;7.93;5.07;;;17.40;99.90;;;;;;6730813;88;20196;-75
2021/08/12 06:27:25;;;;;;;15.20;5.97;;;17.80;99.90;;;;;;6730935;88;20180;-74
2021/08/12 06:37:26;;;;;;;10.00;5.82;;;18.10;99.90;;;;;;6729396;88;20384;-74
2021/08/12 06:47:32;;;;;;;9.25;5.90;;;18.20;99.90;;;;;;6730152;88;20761;-74
2021/08/12 06:57:35;;;;;;;8.60;4.97;;;18.30;99.90;;;;;;6730097;88;20196;-73
2021/08/12 07:07:41;;;;;;;9.65;4.82;;;19.00;99.90;;;;;;6729520;88;20245;-73
2021/08/12 07:17:50;;;;;;;7.70;4.57;;;19.60;99.90;;;;;;6729881;88;20260;-73
2021/08/12 07:27:53;;;;;;;7.75;4.30;;;20.80;99.90;;;;;;6734608;88;20204;-73
2021/08/12 07:37:54;;;;;;;8.25;4.43;;;21.10;99.90;;;;;;6732131;88;20160;-73
2021/08/12 07:47:58;;;;;;;9.60;4.35;;;21.50;99.90;;;;;;6737477;88;20784;-73
2021/08/12 07:57:59;;;;;;;7.37;4.33;;;21.80;99.90;;;;;;6734091;88;20180;-73
2021/08/12 08:08:02;;;;;;;8.18;4.10;;;22.80;99.90;;;;;;6720105;88;20385;-74
2021/08/12 08:18:11;;;;;;;;;;;23.60;99.90;;;;;;6725439;88;20618;-73
2021/08/12 08:28:14;;;;;;;6.90;3.92;;;24.20;99.90;;;;;;6729086;88;20518;-73
2021/08/12 08:38:15;;;;;;;7.82;4.12;;;24.30;99.90;;;;;;6729613;88;20195;-73
2021/08/12 08:48:17;;;;;;;8.35;4.32;;;24.50;99.90;;;;;;6730718;88;20736;-73
2021/08/12 08:58:20;;;;;;;6.07;3.80;;;25.40;99.90;;;;;;6732323;88;20202;-74
2021/08/12 09:08:24;;;;;;;8.32;3.83;;;25.40;99.90;;;;;;6731654;88;20176;-73
2021/08/12 09:18:27;;;;;;;5.78;3.65;;;25.70;99.90;;;;;;6731427;88;20165;-73
2021/08/12 09:28:34;;;;;;;6.65;3.50;;;26.10;99.90;;;;;;6731459;88;20208;-73
2021/08/12 09:38:35;;;;;;;10.57;3.90;;;26.60;99.90;;;;;;6731231;88;20726;-74
2021/08/12 09:48:40;;;;;;;7.03;3.62;;;28.40;99.90;;;;;;6731040;88;20648;-74
2021/08/12 09:58:42;;;;;;;5.53;3.08;;;28.70;99.90;;;;;;6731031;88;20374;-73
2021/08/12 10:08:51;;;;;;;7.35;3.30;;;28.70;99.90;;;;;;6730985;88;20173;-73
2021/08/12 10:18:54;;;;;;;5.45;2.97;;;28.60;99.90;;;;;;6731176;88;20177;-73
2021/08/12 10:29:15;;;;;;;6.00;3.17;;;28.50;99.90;;;;;;6731505;88;20192;-73
2021/08/12 10:39:17;;;;;;;9.88;3.22;;;28.30;99.90;;;;;;6713700;88;20181;-73
2021/08/12 10:49:32;;;;;;;7.07;3.27;;;28.30;99.90;;;;;;6724261;88;20284;-73
2021/08/12 10:59:35;;;;;;;6.45;3.47;;;28.70;99.40;;;;;;6729968;88;20668;-73
2021/08/12 11:09:56;;;;;;;8.63;3.50;;;28.70;99.10;;;;;;6729686;88;20342;-74
2021/08/12 11:19:56;;;;;;;7.10;3.60;;;28.40;99.90;;;;;;6725094;88;20222;-74
2021/08/12 11:29:57;;;;;;;7.45;3.40;;;28.20;99.90;;;;;;6729620;88;20341;-73
2021/08/12 11:40:10;;;;;;;7.03;3.80;;;27.70;99.90;;;;;;6729800;88;20232;-75
2021/08/12 11:50:11;;;;;;;;;;;28.10;99.90;;;;;;6729530;88;20195;-74
2021/08/12 12:00:18;;;;;;;6.12;3.50;;;27.70;99.90;;;;;;6730089;88;20078;-75
2021/08/12 12:10:30;;;;;;;6.60;3.20;;;29.50;99.10;;;;;;6729556;88;20204;-74
2021/08/12 12:20:34;;;;;;;6.45;3.47;;;31.20;96.80;;;;;;6729011;88;20312;-74
2021/08/12 12:30:35;;;;;;;6.70;3.53;;;31.60;94.80;;;;;;6729098;88;20696;-74
2021/08/12 12:40:38;;;;;;;5.35;3.00;;;32.00;95.10;;;;;;6729084;88;20343;-74
2021/08/12 12:50:48;;;;;;;6.30;3.20;;;32.00;94.70;;;;;;6729230;88;20327;-74
2021/08/12 13:00:58;;;;;;;5.80;3.20;;;33.00;93.20;;;;;;6731199;88;20311;-74
2021/08/12 13:11:09;;;;;;;4.83;3.30;;;32.80;93.10;;;;;;6735644;88;20306;-73
2021/08/12 13:21:24;;;;;;;5.30;3.10;;;32.50;93.30;;;;;;6738909;88;20839;-73
2021/08/12 13:31:41;;;;;;;7.20;3.15;;;33.00;91.90;;;;;;6738791;88;20326;-74
2021/08/12 13:41:44;;;;;;;8.52;3.28;;;32.60;92.70;;;;;;6735798;88;20184;-76
2021/08/12 13:51:45;;;;;;;4.82;3.20;;;32.70;91.40;;;;;;6730900;88;20189;-75
2021/08/12 14:01:47;;;;;;;5.60;3.25;;;32.00;92.70;;;;;;6731736;88;20194;-75
2021/08/12 14:11:48;;;;;;;5.82;3.20;;;32.80;91.70;;;;;;6732180;88;20244;-76
2021/08/12 14:21:48;;;;;;;5.05;3.53;;;33.80;90.60;;;;;;6731351;88;20188;-75
2021/08/12 14:31:49;;;;;;;7.45;3.67;;;32.40;91.20;;;;;;6732757;88;20201;-75
2021/08/12 14:41:49;;;;;;;7.30;3.85;;;33.70;89.60;;;;;;6732162;88;20328;-76
2021/08/12 14:51:50;;;;;;;8.63;3.97;;;33.80;89.40;;;;;;6730564;88;20278;-75
2021/08/12 15:01:50;;;;;;;6.15;4.00;;;32.50;90.50;;;;;;6711386;88;20244;-76
2021/08/12 15:11:51;;;;;;;;;;;32.50;90.30;;;;;;6732256;88;20206;-76
2021/08/12 15:21:52;;;;;;;6.82;4.20;;;33.20;89.90;;;;;;6731180;88;20069;-77
2021/08/12 15:31:52;;;;;;;;;;;33.60;88.70;;;;;;6734132;88;20181;-77
2021/08/12 15:41:53;;;;;;;6.90;4.03;;;33.00;88.90;;;;;;6731631;88;20089;-76
2021/08/12 15:51:55;;;;;;;9.23;4.30;;;33.20;89.10;;;;;;6730678;88;20223;-76
2021/08/12 16:01:55;;;;;;;6.87;4.30;;;32.70;90.00;;;;;;6730830;88;20729;-76
2021/08/12 16:11:56;;;;;;;6.90;4.20;;;31.80;90.70;;;;;;6730067;88;20203;-77
2021/08/12 16:21:56;;;;;;;8.55;4.25;;;31.20;91.40;;;;;;6737499;77;20677;-79
2021/08/12 16:31:57;;;;;;;7.45;4.57;;;31.10;92.20;;;;;;6729416;88;20194;-84
2021/08/12 16:41:58;;;;;;;8.20;4.50;;;30.80;92.70;;;;;;6724374;88;20221;-81
2021/08/12 16:52:00;;;;;;;9.13;4.57;;;30.10;93.20;;;;;;6711541;88;20745;-76
2021/08/12 17:02:01;;;;;;;6.73;4.50;;;30.10;93.80;;;;;;6714498;88;20302;-75
2021/08/12 17:12:01;;;;;;;7.97;4.65;;;29.60;94.10;;;;;;6715346;88;20645;-74
2021/08/12 17:22:02;;;;;;;7.37;4.70;;;29.00;95.10;;;;;;6707196;88;20308;-75
2021/08/12 17:32:03;;;;;;;8.60;4.70;;;28.60;94.90;;;;;;6704271;88;20211;-75
2021/08/12 17:42:04;;;;;;;9.00;5.00;;;30.10;94.30;;;;;;6706424;88;20621;-74
2021/08/12 17:52:05;;;;;;;7.00;4.70;;;30.80;93.60;;;;;;6709131;88;20238;-77
2021/08/12 18:02:05;;;;;;;8.60;4.87;;;28.90;95.10;;;;;;6712309;88;20232;-76
2021/08/12 18:12:06;;;;;;;9.43;4.70;;;27.50;98.30;;;;;;6713539;88;20219;-75
2021/08/12 18:22:07;;;;;;;7.28;4.78;;;27.00;99.90;;;;;;6719007;88;20261;-76
2021/08/12 18:32:08;;;;;;;7.57;4.55;;;26.40;99.90;;;;;;6711444;88;20184;-78
2021/08/12 18:42:09;;;;;;;9.00;5.40;;;26.10;99.90;;;;;;6731374;88;20241;-80
2021/08/12 18:52:09;;;;;;;8.63;5.80;;;25.90;99.90;;;;;;6728138;88;20194;-78
2021/08/12 19:02:10;;;;;;;8.32;6.10;;;25.60;99.90;;;;;;6717249;88;20216;-78
2021/08/12 19:12:11;;;;;;;12.30;6.53;;;25.00;99.90;;;;;;6723845;88;20198;-80
2021/08/12 19:22:11;;;;;;;10.10;5.90;;;24.50;99.90;;;;;;6723455;88;20237;-79
2021/08/12 19:32:12;;;;;;;9.32;5.93;;;24.20;99.90;;;;;;6721252;88;20217;-78
2021/08/12 19:42:12;;;;;;;9.93;6.65;;;24.10;99.90;;;;;;6721601;88;20279;-80
2021/08/12 19:52:13;;;;;;;9.87;6.87;;;23.90;99.90;;;;;;6718819;88;20183;-82
2021/08/12 20:02:16;;;;;;;10.48;6.18;;;23.90;99.90;;;;;;6720908;88;20248;-83
2021/08/12 20:12:19;;;;;;;10.15;5.95;;;23.60;99.90;;;;;;6723250;88;20335;-82
2021/08/12 20:22:19;;;;;;;9.67;6.80;;;23.50;99.90;;;;;;6727415;88;20203;-81
2021/08/12 20:32:20;;;;;;;11.45;6.37;;;23.20;99.90;;;;;;6718388;88;20180;-81
2021/08/12 20:42:21;;;;;;;10.40;6.50;;;22.90;99.90;;;;;;6726807;88;20877;-81
2021/08/12 22:24:56;;;;;;;19.45;12.13;;;21.00;99.90;;;;;;6722560;88;20754;-79
2021/08/12 22:34:56;;;;;;;12.82;7.90;;;20.50;99.90;;;;;;6719575;88;20264;-78
2021/08/12 22:44:57;;;;;;;17.27;10.20;;;20.50;99.90;;;;;;6718145;88;20190;-79
2021/08/12 22:54:57;;;;;;;11.27;7.50;;;20.20;99.90;;;;;;6720340;88;20201;-79
2021/08/12 23:04:58;;;;;;;10.02;7.20;;;20.00;99.90;;;;;;6716352;88;20197;-80
2021/08/12 23:14:59;;;;;;;10.68;7.32;;;19.90;99.90;;;;;;6720202;88;20189;-79
2021/08/12 23:24:59;;;;;;;10.88;6.85;;;19.80;99.90;;;;;;6719762;88;20194;-81
2021/08/12 23:35:00;;;;;;;11.60;7.00;;;19.70;99.90;;;;;;6716490;88;20756;-80
2021/08/12 23:45:00;;;;;;;11.70;7.20;;;19.80;99.90;;;;;;6720051;88;20218;-79
2021/08/12 23:55:01;;;;;;;12.00;7.47;;;19.70;99.90;;;;;;6720304;88;20186;-80
